createdAt,value
2024-05-09T00:00:12.706Z,832.00
2024-05-09T00:01:09.523Z,832.00
2024-05-09T00:02:08.511Z,833.00
2024-05-09T00:03:10.079Z,828.00
2024-05-09T00:04:08.598Z,836.00
2024-05-09T00:05:08.651Z,842.00
2024-05-09T00:06:08.591Z,823.00
2024-05-09T00:07:08.545Z,833.00
2024-05-09T00:08:08.537Z,840.00
2024-05-09T00:09:08.489Z,822.00
2024-05-09T00:10:14.627Z,821.00
2024-05-09T00:11:09.609Z,822.00
2024-05-09T00:12:08.731Z,824.00
2024-05-09T00:13:08.866Z,826.00
2024-05-09T00:14:08.541Z,823.00
2024-05-09T00:15:08.516Z,823.00
2024-05-09T00:16:08.489Z,825.00
2024-05-09T00:17:08.585Z,821.00
2024-05-09T00:18:08.866Z,827.00
2024-05-09T00:19:08.669Z,813.00
2024-05-09T00:20:17.410Z,828.00
2024-05-09T00:21:09.888Z,829.00
2024-05-09T00:22:08.680Z,829.00
2024-05-09T00:23:09.226Z,825.00
2024-05-09T00:24:08.639Z,827.00
2024-05-09T00:25:08.650Z,817.00
2024-05-09T00:26:08.723Z,815.00
2024-05-09T00:27:11.269Z,822.00
2024-05-09T00:28:08.654Z,809.00
2024-05-09T00:29:08.718Z,813.00
2024-05-09T00:30:14.258Z,823.00
2024-05-09T00:31:09.656Z,823.00
2024-05-09T00:32:08.711Z,815.00
2024-05-09T00:33:10.262Z,821.00
2024-05-09T00:34:08.919Z,820.00
2024-05-09T00:35:08.749Z,811.00
2024-05-09T00:36:08.670Z,807.00
2024-05-09T00:37:08.678Z,822.00
2024-05-09T00:38:08.709Z,819.00
2024-05-09T00:39:09.612Z,810.00
2024-05-09T00:40:15.346Z,799.00
2024-05-09T00:41:09.713Z,799.00
2024-05-09T00:42:08.666Z,802.00
2024-05-09T00:43:08.701Z,800.00
2024-05-09T00:44:08.689Z,808.00
2024-05-09T00:45:08.667Z,804.00
2024-05-09T00:46:08.692Z,803.00
2024-05-09T00:47:08.815Z,797.00
2024-05-09T00:48:10.012Z,791.00
2024-05-09T00:49:08.860Z,800.00
2024-05-09T00:50:12.910Z,803.00
2024-05-09T00:51:09.990Z,803.00
2024-05-09T00:52:08.894Z,800.00
2024-05-09T00:53:08.856Z,795.00
2024-05-09T00:54:08.873Z,798.00
2024-05-09T00:55:08.859Z,799.00
2024-05-09T00:56:08.881Z,804.00
2024-05-09T00:57:08.866Z,798.00
2024-05-09T00:58:08.901Z,787.00
2024-05-09T00:59:09.003Z,790.00
2024-05-09T01:00:22.157Z,789.00
2024-05-09T01:01:10.037Z,789.00
2024-05-09T01:02:09.096Z,784.00
2024-05-09T01:03:10.911Z,791.00
2024-05-09T01:04:09.323Z,790.00
2024-05-09T01:05:09.092Z,790.00
2024-05-09T01:06:09.059Z,790.00
2024-05-09T01:07:09.022Z,786.00
2024-05-09T01:08:09.572Z,789.00
2024-05-09T01:09:09.031Z,784.00
2024-05-09T01:10:14.307Z,788.00
2024-05-09T01:11:10.157Z,789.00
2024-05-09T01:12:09.364Z,787.00
2024-05-09T01:13:09.055Z,784.00
2024-05-09T01:14:09.105Z,787.00
2024-05-09T01:15:09.078Z,779.00
2024-05-09T01:16:09.044Z,775.00
2024-05-09T01:17:09.108Z,771.00
2024-05-09T01:18:09.447Z,772.00
2024-05-09T01:19:09.223Z,778.00
2024-05-09T01:20:12.863Z,778.00
2024-05-09T01:21:10.357Z,778.00
2024-05-09T01:22:09.199Z,778.00
2024-05-09T01:23:09.944Z,766.00
2024-05-09T01:24:09.169Z,775.00
2024-05-09T01:25:09.167Z,768.00
2024-05-09T01:26:09.233Z,766.00
2024-05-09T01:27:09.202Z,775.00
2024-05-09T01:28:09.186Z,772.00
2024-05-09T01:29:09.309Z,762.00
2024-05-09T01:30:14.616Z,770.00
2024-05-09T01:31:10.292Z,770.00
2024-05-09T01:32:09.407Z,770.00
2024-05-09T01:33:11.192Z,765.00
2024-05-09T01:34:09.470Z,770.00
2024-05-09T01:35:09.439Z,763.00
2024-05-09T01:36:09.347Z,764.00
2024-05-09T01:37:09.345Z,758.00
2024-05-09T01:38:09.367Z,770.00
2024-05-09T01:39:09.338Z,775.00
2024-05-09T01:40:14.821Z,766.00
2024-05-09T01:41:10.416Z,767.00
2024-05-09T01:42:09.343Z,767.00
2024-05-09T01:43:10.637Z,765.00
2024-05-09T01:44:09.404Z,759.00
2024-05-09T01:45:09.365Z,751.00
2024-05-09T01:46:09.372Z,764.00
2024-05-09T01:47:09.767Z,765.00
2024-05-09T01:48:10.293Z,763.00
2024-05-09T01:49:09.719Z,756.00
2024-05-09T01:50:11.123Z,754.00
2024-05-09T01:51:09.858Z,757.00
2024-05-09T01:52:09.809Z,761.00
2024-05-09T01:53:10.292Z,753.00
2024-05-09T01:54:09.882Z,760.00
2024-05-09T01:55:09.991Z,759.00
2024-05-09T01:56:10.124Z,750.00
2024-05-09T01:57:10.110Z,752.00
2024-05-09T01:58:10.231Z,753.00
2024-05-09T01:59:10.250Z,741.00
2024-05-09T02:00:10.605Z,754.00
2024-05-09T02:01:10.418Z,737.00
2024-05-09T02:02:10.651Z,751.00
2024-05-09T02:03:12.045Z,742.00
2024-05-09T02:04:10.734Z,742.00
2024-05-09T02:05:10.694Z,744.00
2024-05-09T02:06:10.571Z,744.00
2024-05-09T02:07:10.496Z,741.00
2024-05-09T02:08:10.530Z,742.00
2024-05-09T02:09:10.537Z,735.00
2024-05-09T02:10:16.527Z,747.00
2024-05-09T02:11:11.701Z,747.00
2024-05-09T02:12:10.796Z,737.00
2024-05-09T02:13:10.490Z,742.00
2024-05-09T02:14:10.518Z,740.00
2024-05-09T02:15:10.498Z,731.00
2024-05-09T02:16:10.503Z,735.00
2024-05-09T02:17:10.561Z,728.00
2024-05-09T02:18:11.215Z,738.00
2024-05-09T02:19:10.663Z,741.00
2024-05-09T02:20:16.138Z,727.00
2024-05-09T02:21:11.663Z,728.00
2024-05-09T02:22:10.651Z,728.00
2024-05-09T02:23:10.707Z,734.00
2024-05-09T02:24:10.663Z,732.00
2024-05-09T02:25:10.663Z,736.00
2024-05-09T02:26:10.724Z,742.00
2024-05-09T02:27:10.691Z,733.00
2024-05-09T02:28:10.649Z,732.00
2024-05-09T02:29:10.776Z,733.00
2024-05-09T02:30:18.746Z,730.00
2024-05-09T02:31:11.803Z,730.00
2024-05-09T02:32:11.223Z,724.00
2024-05-09T02:33:12.913Z,722.00
2024-05-09T02:34:10.884Z,732.00
2024-05-09T02:35:10.864Z,732.00
2024-05-09T02:36:10.816Z,738.00
2024-05-09T02:37:10.798Z,737.00
2024-05-09T02:38:11.081Z,715.00
2024-05-09T02:39:10.781Z,733.00
2024-05-09T02:40:14.720Z,719.00
2024-05-09T02:41:11.889Z,720.00
2024-05-09T02:42:10.813Z,722.00
2024-05-09T02:43:11.608Z,721.00
2024-05-09T02:44:10.949Z,725.00
2024-05-09T02:45:10.826Z,723.00
2024-05-09T02:46:10.821Z,723.00
2024-05-09T02:47:10.858Z,727.00
2024-05-09T02:48:11.376Z,729.00
2024-05-09T02:49:11.049Z,721.00
2024-05-09T02:50:16.129Z,726.00
2024-05-09T02:51:12.053Z,727.00
2024-05-09T02:52:10.979Z,722.00
2024-05-09T02:53:11.068Z,727.00
2024-05-09T02:54:10.986Z,720.00
2024-05-09T02:55:10.972Z,718.00
2024-05-09T02:56:11.065Z,719.00
2024-05-09T02:57:10.975Z,712.00
2024-05-09T02:58:11.044Z,720.00
2024-05-09T02:59:11.034Z,720.00
2024-05-09T03:00:18.486Z,718.00
2024-05-09T03:01:12.115Z,718.00
2024-05-09T03:02:11.233Z,719.00
2024-05-09T03:03:13.466Z,710.00
2024-05-09T03:04:11.134Z,718.00
2024-05-09T03:05:11.189Z,707.00
2024-05-09T03:06:11.075Z,713.00
2024-05-09T03:07:11.099Z,715.00
2024-05-09T03:08:11.220Z,707.00
2024-05-09T03:09:11.098Z,703.00
2024-05-09T03:10:18.346Z,715.00
2024-05-09T03:11:12.255Z,715.00
2024-05-09T03:12:11.144Z,713.00
2024-05-09T03:13:11.088Z,710.00
2024-05-09T03:14:11.159Z,711.00
2024-05-09T03:15:11.106Z,705.00
2024-05-09T03:16:11.090Z,715.00
2024-05-09T03:17:11.152Z,711.00
2024-05-09T03:18:11.594Z,701.00
2024-05-09T03:19:11.154Z,703.00
2024-05-09T03:20:19.998Z,702.00
2024-05-09T03:21:12.152Z,702.00
2024-05-09T03:22:11.133Z,704.00
2024-05-09T03:23:11.135Z,707.00
2024-05-09T03:24:11.109Z,705.00
2024-05-09T03:25:11.110Z,707.00
2024-05-09T03:26:11.120Z,706.00
2024-05-09T03:27:11.128Z,702.00
2024-05-09T03:28:11.122Z,695.00
2024-05-09T03:29:11.193Z,704.00
2024-05-09T03:30:15.518Z,702.00
2024-05-09T03:31:12.251Z,702.00
2024-05-09T03:32:11.318Z,698.00
2024-05-09T03:33:11.628Z,697.00
2024-05-09T03:34:11.351Z,689.00
2024-05-09T03:35:11.265Z,697.00
2024-05-09T03:36:11.558Z,689.00
2024-05-09T03:37:11.239Z,694.00
2024-05-09T03:38:11.381Z,694.00
2024-05-09T03:39:11.304Z,683.00
2024-05-09T03:40:17.719Z,692.00
2024-05-09T03:41:12.477Z,692.00
2024-05-09T03:42:11.378Z,693.00
2024-05-09T03:43:11.346Z,695.00
2024-05-09T03:44:11.394Z,698.00
2024-05-09T03:45:11.391Z,697.00
2024-05-09T03:46:11.353Z,693.00
2024-05-09T03:47:11.424Z,691.00
2024-05-09T03:48:11.591Z,686.00
2024-05-09T03:49:11.561Z,688.00
2024-05-09T03:50:18.335Z,682.00
2024-05-09T03:51:12.570Z,683.00
2024-05-09T03:52:11.487Z,684.00
2024-05-09T03:53:11.671Z,686.00
2024-05-09T03:54:11.524Z,690.00
2024-05-09T03:55:11.528Z,683.00
2024-05-09T03:56:11.588Z,688.00
2024-05-09T03:57:11.539Z,689.00
2024-05-09T03:58:11.533Z,686.00
2024-05-09T03:59:11.704Z,680.00
2024-05-09T04:00:17.903Z,689.00
2024-05-09T04:01:12.713Z,690.00
2024-05-09T04:02:11.880Z,690.00
2024-05-09T04:03:13.081Z,681.00
2024-05-09T04:04:11.770Z,681.00
2024-05-09T04:05:11.707Z,683.00
2024-05-09T04:06:11.701Z,686.00
2024-05-09T04:07:11.712Z,688.00
2024-05-09T04:08:11.909Z,673.00
2024-05-09T04:09:11.718Z,672.00
2024-05-09T04:10:20.687Z,679.00
2024-05-09T04:11:12.900Z,680.00
2024-05-09T04:12:11.845Z,680.00
2024-05-09T04:13:11.874Z,676.00
2024-05-09T04:14:11.827Z,680.00
2024-05-09T04:15:13.630Z,684.00
2024-05-09T04:16:11.774Z,681.00
2024-05-09T04:17:19.535Z,600.00
2024-05-09T04:18:19.614Z,600.00
2024-05-09T04:19:19.610Z,600.00
2024-05-09T04:20:29.066Z,600.00
2024-05-09T04:21:20.521Z,600.00
2024-05-09T04:22:19.509Z,600.00
2024-05-09T04:23:19.585Z,600.00
2024-05-09T04:24:19.557Z,600.00
2024-05-09T04:25:19.516Z,600.00
2024-05-09T04:26:19.540Z,600.00
2024-05-09T04:27:19.528Z,604.00
2024-05-09T04:28:19.538Z,603.00
2024-05-09T04:29:19.590Z,603.00
2024-05-09T04:30:26.307Z,605.00
2024-05-09T04:31:32.197Z,600.00
2024-05-09T04:32:32.313Z,600.00
2024-05-09T04:33:32.370Z,600.00
2024-05-09T04:34:32.218Z,600.00
2024-05-09T04:35:32.395Z,600.00
2024-05-09T04:36:32.187Z,600.00
2024-05-09T04:37:32.192Z,602.00
2024-05-09T04:38:32.295Z,605.00
2024-05-09T04:39:32.203Z,602.00
2024-05-09T04:40:35.394Z,605.00
2024-05-09T04:41:32.325Z,605.00
2024-05-09T04:42:32.204Z,605.00
2024-05-09T04:43:32.189Z,604.00
2024-05-09T04:44:32.269Z,603.00
2024-05-09T04:45:32.285Z,604.00
2024-05-09T04:46:32.206Z,603.00
2024-05-09T04:47:32.360Z,603.00
2024-05-09T04:48:32.455Z,603.00
2024-05-09T04:49:32.367Z,605.00
2024-05-09T04:50:37.122Z,607.00
2024-05-09T04:51:33.234Z,607.00
2024-05-09T04:52:32.241Z,606.00
2024-05-09T04:53:32.264Z,605.00
2024-05-09T04:54:36.271Z,604.00
2024-05-09T04:55:32.227Z,604.00
2024-05-09T04:56:32.303Z,604.00
2024-05-09T04:57:32.238Z,603.00
2024-05-09T04:58:32.205Z,603.00
2024-05-09T04:59:32.241Z,602.00
2024-05-09T05:00:36.597Z,603.00
2024-05-09T05:01:33.252Z,603.00
2024-05-09T05:02:32.395Z,604.00
2024-05-09T05:03:32.562Z,601.00
2024-05-09T05:04:32.246Z,603.00
2024-05-09T05:05:32.291Z,601.00
2024-05-09T05:06:32.273Z,599.00
2024-05-09T05:07:32.242Z,605.00
2024-05-09T05:08:32.278Z,607.00
2024-05-09T05:09:32.267Z,604.00
2024-05-09T05:10:35.935Z,606.00
2024-05-09T05:11:32.411Z,606.00
2024-05-09T05:12:32.387Z,606.00
2024-05-09T05:13:32.280Z,600.00
2024-05-09T05:14:32.346Z,606.00
2024-05-09T05:15:32.295Z,602.00
2024-05-09T05:16:32.304Z,602.00
2024-05-09T05:17:32.443Z,600.00
2024-05-09T05:18:32.364Z,603.00
2024-05-09T05:19:32.384Z,600.00
2024-05-09T05:20:33.847Z,602.00
2024-05-09T05:21:32.312Z,605.00
2024-05-09T05:22:32.312Z,607.00
2024-05-09T05:23:32.313Z,603.00
2024-05-09T05:24:32.283Z,605.00
2024-05-09T05:25:32.364Z,604.00
2024-05-09T05:26:32.504Z,606.00
2024-05-09T05:27:32.461Z,602.00
2024-05-09T05:28:32.546Z,608.00
2024-05-09T05:29:32.601Z,607.00
2024-05-09T05:30:34.683Z,610.00
2024-05-09T05:31:32.834Z,610.00
2024-05-09T05:32:32.979Z,607.00
2024-05-09T05:33:33.129Z,608.00
2024-05-09T05:34:32.968Z,604.00
2024-05-09T05:35:33.277Z,607.00
2024-05-09T05:36:33.068Z,604.00
2024-05-09T05:37:33.171Z,602.00
2024-05-09T05:38:33.240Z,608.00
2024-05-09T05:39:33.273Z,608.00
2024-05-09T05:40:36.916Z,605.00
2024-05-09T05:41:34.416Z,605.00
2024-05-09T05:42:33.289Z,605.00
2024-05-09T05:43:33.305Z,602.00
2024-05-09T05:44:33.397Z,607.00
2024-05-09T05:45:33.331Z,604.00
2024-05-09T05:46:33.311Z,606.00
2024-05-09T05:47:33.409Z,603.00
2024-05-09T05:48:33.387Z,605.00
2024-05-09T05:49:33.379Z,603.00
2024-05-09T05:50:36.518Z,603.00
2024-05-09T05:51:33.355Z,603.00
2024-05-09T05:52:33.823Z,603.00
2024-05-09T05:53:33.680Z,603.00
2024-05-09T05:54:33.354Z,603.00
2024-05-09T05:55:33.399Z,603.00
2024-05-09T05:56:33.474Z,606.00
2024-05-09T05:57:33.381Z,605.00
2024-05-09T05:58:33.398Z,603.00
2024-05-09T05:59:33.546Z,607.00
2024-05-09T06:00:38.018Z,605.00
2024-05-09T06:01:34.453Z,605.00
2024-05-09T06:02:33.473Z,605.00
2024-05-09T06:03:33.503Z,606.00
2024-05-09T06:04:33.462Z,605.00
2024-05-09T06:05:33.632Z,606.00
2024-05-09T06:06:33.385Z,606.00
2024-05-09T06:07:33.394Z,603.00
2024-05-09T06:08:33.563Z,602.00
2024-05-09T06:09:33.404Z,603.00
2024-05-09T06:10:38.624Z,602.00
2024-05-09T06:11:34.562Z,602.00
2024-05-09T06:12:33.500Z,602.00
2024-05-09T06:13:33.483Z,603.00
2024-05-09T06:14:33.585Z,604.00
2024-05-09T06:15:33.495Z,605.00
2024-05-09T06:16:33.477Z,602.00
2024-05-09T06:17:33.670Z,603.00
2024-05-09T06:18:33.699Z,607.00
2024-05-09T06:19:33.709Z,603.00
2024-05-09T06:20:36.388Z,604.00
2024-05-09T06:21:33.619Z,604.00
2024-05-09T06:22:33.655Z,603.00
2024-05-09T06:23:33.772Z,604.00
2024-05-09T06:24:33.625Z,607.00
2024-05-09T06:25:33.642Z,602.00
2024-05-09T06:26:33.675Z,604.00
2024-05-09T06:27:33.632Z,602.00
2024-05-09T06:28:33.636Z,605.00
2024-05-09T06:29:33.722Z,601.00
2024-05-09T06:30:38.443Z,604.00
2024-05-09T06:31:34.650Z,604.00
2024-05-09T06:32:33.766Z,604.00
2024-05-09T06:33:34.143Z,605.00
2024-05-09T06:34:33.725Z,605.00
2024-05-09T06:35:33.991Z,604.00
2024-05-09T06:36:33.634Z,604.00
2024-05-09T06:37:33.889Z,600.00
2024-05-09T06:38:33.867Z,603.00
2024-05-09T06:39:33.695Z,603.00
2024-05-09T06:40:37.573Z,601.00
2024-05-09T06:41:34.949Z,601.00
2024-05-09T06:42:33.741Z,602.00
2024-05-09T06:43:33.735Z,603.00
2024-05-09T06:44:33.798Z,600.00
2024-05-09T06:45:33.755Z,600.00
2024-05-09T06:46:33.788Z,606.00
2024-05-09T06:47:33.925Z,602.00
2024-05-09T06:48:33.968Z,605.00
2024-05-09T06:49:33.924Z,605.00
2024-05-09T06:50:37.730Z,603.00
2024-05-09T06:51:34.901Z,603.00
2024-05-09T06:52:33.918Z,602.00
2024-05-09T06:53:33.986Z,603.00
2024-05-09T06:54:33.903Z,603.00
2024-05-09T06:55:33.927Z,603.00
2024-05-09T06:56:34.012Z,601.00
2024-05-09T06:57:33.918Z,600.00
2024-05-09T06:58:33.879Z,608.00
2024-05-09T06:59:33.970Z,605.00
2024-05-09T07:00:38.667Z,600.00
2024-05-09T07:01:35.026Z,600.00
2024-05-09T07:02:34.154Z,600.00
2024-05-09T07:03:34.129Z,601.00
2024-05-09T07:04:34.139Z,600.00
2024-05-09T07:05:34.078Z,603.00
2024-05-09T07:06:33.976Z,601.00
2024-05-09T07:07:33.985Z,602.00
2024-05-09T07:08:34.144Z,603.00
2024-05-09T07:09:33.958Z,604.00
2024-05-09T07:10:35.557Z,602.00
2024-05-09T07:11:34.245Z,602.00
2024-05-09T07:12:34.218Z,603.00
2024-05-09T07:13:34.171Z,604.00
2024-05-09T07:14:36.017Z,601.00
2024-05-09T07:15:34.209Z,605.00
2024-05-09T07:16:34.192Z,602.00
2024-05-09T07:17:34.326Z,605.00
2024-05-09T07:18:34.361Z,605.00
2024-05-09T07:19:34.282Z,602.00
2024-05-09T07:20:35.175Z,604.00
2024-05-09T07:21:34.209Z,602.00
2024-05-09T07:22:34.241Z,602.00
2024-05-09T07:23:34.390Z,603.00
2024-05-09T07:24:34.236Z,601.00
2024-05-09T07:25:34.208Z,602.00
2024-05-09T07:26:34.299Z,604.00
2024-05-09T07:27:34.228Z,600.00
2024-05-09T07:28:34.234Z,602.00
2024-05-09T07:29:37.137Z,603.00
2024-05-09T07:30:35.150Z,603.00
2024-05-09T07:31:34.247Z,603.00
2024-05-09T07:32:34.331Z,603.00
2024-05-09T07:33:34.304Z,604.00
2024-05-09T07:34:34.325Z,604.00
2024-05-09T07:35:34.572Z,603.00
2024-05-09T07:36:34.241Z,601.00
2024-05-09T07:37:34.388Z,603.00
2024-05-09T07:38:34.309Z,601.00
2024-05-09T07:39:34.241Z,603.00
2024-05-09T07:40:36.631Z,604.00
2024-05-09T07:41:34.344Z,601.00
2024-05-09T07:42:34.265Z,602.00
2024-05-09T07:43:34.279Z,604.00
2024-05-09T07:44:34.315Z,604.00
2024-05-09T07:50:34.326Z,602.00
2024-05-09T07:52:23.638Z,603.00
2024-05-09T07:53:33.237Z,603.00
2024-05-09T07:53:42.652Z,603.00
2024-05-09T07:54:35.426Z,603.00
2024-05-09T07:55:34.493Z,605.00
2024-05-09T07:56:34.552Z,607.00
2024-05-09T07:57:34.320Z,609.00
2024-05-09T07:58:34.286Z,609.00
2024-05-09T07:59:37.816Z,610.00
2024-05-09T08:00:34.508Z,610.00
2024-05-09T08:01:34.395Z,605.00
2024-05-09T08:02:34.392Z,604.00
2024-05-09T08:03:34.525Z,604.00
2024-05-09T08:04:34.346Z,602.00
2024-05-09T08:05:34.442Z,600.00
2024-05-09T08:06:34.381Z,604.00
2024-05-09T08:07:34.308Z,601.00
2024-05-09T08:08:34.312Z,606.00
2024-05-09T08:09:36.690Z,601.00
2024-05-09T08:10:34.357Z,601.00
2024-05-09T08:11:34.394Z,602.00
2024-05-09T08:12:34.326Z,601.00
2024-05-09T08:13:34.341Z,600.00
2024-05-09T08:14:34.301Z,603.00
2024-05-09T08:15:34.325Z,601.00
2024-05-09T08:16:34.305Z,603.00
2024-05-09T08:17:34.390Z,602.00
2024-05-09T08:18:34.422Z,602.00
2024-05-09T08:19:34.357Z,600.00
2024-05-09T08:20:35.458Z,604.00
2024-05-09T08:21:34.340Z,602.00
2024-05-09T08:22:34.308Z,605.00
2024-05-09T08:23:34.314Z,602.00
2024-05-09T08:24:34.355Z,604.00
2024-05-09T08:25:34.361Z,607.00
2024-05-09T08:26:34.333Z,606.00
2024-05-09T08:27:34.386Z,604.00
2024-05-09T08:28:34.361Z,603.00
2024-05-09T08:29:34.312Z,600.00
2024-05-09T08:30:37.237Z,601.00
2024-05-09T08:31:34.407Z,601.00
2024-05-09T08:32:34.375Z,602.00
2024-05-09T08:33:34.440Z,600.00
2024-05-09T08:34:34.374Z,604.00
2024-05-09T08:35:34.684Z,602.00
2024-05-09T08:36:34.356Z,603.00
2024-05-09T08:37:37.937Z,606.00
2024-05-09T08:38:35.331Z,606.00
2024-05-09T08:39:34.365Z,605.00
2024-05-09T08:40:36.391Z,607.00
2024-05-09T08:41:34.336Z,607.00
2024-05-09T08:42:34.377Z,609.00
2024-05-09T08:43:34.675Z,609.00
2024-05-09T08:44:34.357Z,609.00
2024-05-09T08:45:34.412Z,608.00
2024-05-09T08:46:34.402Z,608.00
2024-05-09T08:47:34.460Z,610.00
2024-05-09T08:48:34.593Z,607.00
2024-05-09T08:49:34.846Z,606.00
2024-05-09T08:50:38.869Z,605.00
2024-05-09T08:51:35.395Z,605.00
2024-05-09T08:52:34.347Z,606.00
2024-05-09T08:53:34.373Z,606.00
2024-05-09T08:54:34.396Z,609.00
2024-05-09T08:55:34.905Z,610.00
2024-05-09T08:56:34.382Z,612.00
2024-05-09T08:57:34.399Z,612.00
2024-05-09T08:58:34.426Z,607.00
2024-05-09T08:59:34.376Z,608.00
2024-05-09T09:00:37.267Z,608.00
2024-05-09T09:01:34.838Z,610.00
2024-05-09T09:02:34.602Z,609.00
2024-05-09T09:03:34.663Z,609.00
2024-05-09T09:04:34.486Z,608.00
2024-05-09T09:05:34.566Z,605.00
2024-05-09T09:06:34.371Z,609.00
2024-05-09T09:07:34.404Z,608.00
2024-05-09T09:08:34.432Z,609.00
2024-05-09T09:09:34.403Z,608.00
2024-05-09T09:10:34.435Z,608.00
2024-05-09T09:11:34.425Z,608.00
2024-05-09T09:12:34.442Z,610.00
2024-05-09T09:13:34.413Z,608.00
2024-05-09T09:14:34.405Z,614.00
2024-05-09T09:15:34.423Z,610.00
2024-05-09T09:16:34.389Z,608.00
2024-05-09T09:17:34.460Z,612.00
2024-05-09T09:18:34.688Z,607.00
2024-05-09T09:19:34.519Z,609.00
2024-05-09T09:20:36.834Z,611.00
2024-05-09T09:21:34.525Z,611.00
2024-05-09T09:22:34.476Z,612.00
2024-05-09T09:23:34.425Z,610.00
2024-05-09T09:24:34.416Z,614.00
2024-05-09T09:25:34.439Z,609.00
2024-05-09T09:26:34.385Z,608.00
2024-05-09T09:27:34.425Z,607.00
2024-05-09T09:28:34.915Z,611.00
2024-05-09T09:29:34.407Z,609.00
2024-05-09T09:30:37.558Z,611.00
2024-05-09T09:31:34.503Z,611.00
2024-05-09T09:32:34.482Z,610.00
2024-05-09T09:33:34.565Z,609.00
2024-05-09T09:34:34.532Z,610.00
2024-05-09T09:35:34.426Z,612.00
2024-05-09T09:36:34.497Z,611.00
2024-05-09T09:37:34.423Z,610.00
2024-05-09T09:38:34.408Z,610.00
2024-05-09T09:39:34.533Z,609.00
2024-05-09T09:40:37.262Z,613.00
2024-05-09T09:41:35.508Z,613.00
2024-05-09T09:42:34.480Z,611.00
2024-05-09T09:43:34.439Z,611.00
2024-05-09T09:44:37.327Z,609.00
2024-05-09T09:45:35.457Z,613.00
2024-05-09T09:46:34.561Z,612.00
2024-05-09T09:47:34.540Z,613.00
2024-05-09T09:48:34.980Z,612.00
2024-05-09T09:49:34.510Z,612.00
2024-05-09T09:50:35.241Z,607.00
2024-05-09T09:51:34.501Z,609.00
2024-05-09T09:52:34.466Z,611.00
2024-05-09T09:53:34.427Z,611.00
2024-05-09T09:54:34.540Z,609.00
2024-05-09T09:55:34.488Z,608.00
2024-05-09T09:56:34.534Z,605.00
2024-05-09T09:57:34.650Z,606.00
2024-05-09T09:58:34.702Z,605.00
2024-05-09T09:59:34.720Z,609.00
2024-05-09T10:00:34.849Z,606.00
2024-05-09T10:01:34.963Z,606.00
2024-05-09T10:02:34.966Z,605.00
2024-05-09T10:03:35.342Z,604.00
2024-05-09T10:04:35.135Z,604.00
2024-05-09T10:05:35.381Z,600.00
2024-05-09T10:06:35.170Z,602.00
2024-05-09T10:07:35.189Z,601.00
2024-05-09T10:08:35.273Z,602.00
2024-05-09T10:09:35.406Z,605.00
2024-05-09T10:10:35.646Z,603.00
2024-05-09T10:11:41.951Z,603.00
2024-05-09T10:12:36.570Z,603.00
2024-05-09T10:13:35.543Z,603.00
2024-05-09T10:14:35.424Z,603.00
2024-05-09T10:15:35.475Z,605.00
2024-05-09T10:16:35.507Z,602.00
2024-05-09T10:17:35.544Z,602.00
2024-05-09T10:18:35.528Z,606.00
2024-05-09T10:19:35.548Z,603.00
2024-05-09T10:20:35.578Z,602.00
2024-05-09T10:21:35.678Z,602.00
2024-05-09T10:22:35.498Z,603.00
2024-05-09T10:23:35.532Z,601.00
2024-05-09T10:24:35.583Z,601.00
2024-05-09T10:25:35.590Z,604.00
2024-05-09T10:26:35.684Z,600.00
2024-05-09T10:27:35.739Z,600.00
2024-05-09T10:28:36.088Z,603.00
2024-05-09T10:29:35.821Z,605.00
2024-05-09T10:30:36.775Z,603.00
2024-05-09T10:31:35.962Z,604.00
2024-05-09T10:32:36.030Z,602.00
2024-05-09T10:33:36.710Z,605.00
2024-05-09T10:34:36.148Z,603.00
2024-05-09T10:35:36.104Z,603.00
2024-05-09T10:36:36.182Z,602.00
2024-05-09T10:37:36.301Z,602.00
2024-05-09T10:38:36.294Z,602.00
2024-05-09T10:39:36.355Z,601.00
2024-05-09T10:40:36.449Z,605.00
2024-05-09T10:41:36.417Z,601.00
2024-05-09T10:42:36.508Z,601.00
2024-05-09T10:43:36.540Z,602.00
2024-05-09T10:44:36.576Z,606.00
2024-05-09T10:45:36.655Z,603.00
2024-05-09T10:46:36.683Z,604.00
2024-05-09T10:47:36.785Z,601.00
2024-05-09T10:48:36.903Z,603.00
2024-05-09T10:49:36.881Z,605.00
2024-05-09T10:50:36.889Z,605.00
2024-05-09T10:51:37.046Z,602.00
2024-05-09T10:52:37.027Z,605.00
2024-05-09T10:53:37.121Z,601.00
2024-05-09T10:54:37.188Z,604.00
2024-05-09T10:55:37.190Z,604.00
2024-05-09T10:56:37.239Z,604.00
2024-05-09T10:57:37.338Z,606.00
2024-05-09T10:58:37.401Z,602.00
2024-05-09T10:59:37.390Z,604.00
2024-05-09T11:00:37.715Z,604.00
2024-05-09T11:01:37.543Z,603.00
2024-05-09T11:02:37.660Z,600.00
2024-05-09T11:03:38.253Z,605.00
2024-05-09T11:04:37.638Z,606.00
2024-05-09T11:05:37.873Z,608.00
2024-05-09T11:06:37.757Z,600.00
2024-05-09T11:07:37.811Z,602.00
2024-05-09T11:08:37.833Z,603.00
2024-05-09T11:09:37.935Z,600.00
2024-05-09T11:10:38.014Z,604.00
2024-05-09T11:11:38.123Z,601.00
2024-05-09T11:12:38.130Z,606.00
2024-05-09T11:13:38.259Z,605.00
2024-05-09T11:14:38.298Z,605.00
2024-05-09T11:15:38.342Z,605.00
2024-05-09T11:16:38.400Z,602.00
2024-05-09T11:17:38.558Z,604.00
2024-05-09T11:18:39.403Z,602.00
2024-05-09T11:19:38.660Z,602.00
2024-05-09T11:20:38.914Z,604.00
2024-05-09T11:21:38.737Z,604.00
2024-05-09T11:22:38.835Z,603.00
2024-05-09T11:23:38.872Z,606.00
2024-05-09T11:24:38.961Z,604.00
2024-05-09T11:25:39.001Z,603.00
2024-05-09T11:26:39.068Z,602.00
2024-05-09T11:27:39.197Z,603.00
2024-05-09T11:28:39.209Z,605.00
2024-05-09T11:29:39.275Z,604.00
2024-05-09T11:30:39.369Z,605.00
2024-05-09T11:31:39.424Z,605.00
2024-05-09T11:32:39.544Z,605.00
2024-05-09T11:33:39.766Z,604.00
2024-05-09T11:34:39.635Z,603.00
2024-05-09T11:35:39.693Z,603.00
2024-05-09T11:36:39.772Z,604.00
2024-05-09T11:37:39.787Z,605.00
2024-05-09T11:38:40.004Z,606.00
2024-05-09T11:39:39.930Z,605.00
2024-05-09T11:40:40.077Z,603.00
2024-05-09T11:41:40.073Z,605.00
2024-05-09T11:42:40.163Z,606.00
2024-05-09T11:43:40.190Z,604.00
2024-05-09T11:44:40.259Z,603.00
2024-05-09T11:45:40.482Z,603.00
2024-05-09T11:46:40.412Z,603.00
2024-05-09T11:47:40.490Z,601.00
2024-05-09T11:48:40.805Z,606.00
2024-05-09T11:49:40.660Z,607.00
2024-05-09T11:50:40.676Z,602.00
2024-05-09T11:51:40.812Z,606.00
2024-05-09T11:52:40.792Z,602.00
2024-05-09T11:53:40.970Z,605.00
2024-05-09T11:54:40.985Z,603.00
2024-05-09T11:55:40.984Z,601.00
2024-05-09T11:56:41.111Z,601.00
2024-05-09T11:57:41.247Z,602.00
2024-05-09T11:58:41.218Z,600.00
2024-05-09T11:59:41.281Z,602.00
2024-05-09T12:00:41.411Z,601.00
2024-05-09T12:01:41.623Z,604.00
2024-05-09T12:02:41.484Z,602.00
2024-05-09T12:03:41.656Z,603.00
2024-05-09T12:04:41.746Z,603.00
2024-05-09T12:05:41.892Z,601.00
2024-05-09T12:06:41.762Z,602.00
2024-05-09T12:07:41.812Z,601.00
2024-05-09T12:08:41.870Z,601.00
2024-05-09T12:09:41.945Z,600.00
2024-05-09T12:10:42.176Z,604.00
2024-05-09T12:11:42.068Z,606.00
2024-05-09T12:12:42.154Z,606.00
2024-05-09T12:13:42.191Z,607.00
2024-05-09T12:14:42.246Z,607.00
2024-05-09T12:15:42.328Z,606.00
2024-05-09T12:16:42.466Z,607.00
2024-05-09T12:17:42.549Z,605.00
2024-05-09T12:18:42.602Z,608.00
2024-05-09T12:19:42.648Z,608.00
2024-05-09T12:20:42.674Z,608.00
2024-05-09T12:21:42.735Z,606.00
2024-05-09T12:22:42.778Z,607.00
2024-05-09T12:23:42.853Z,607.00
2024-05-09T12:24:42.976Z,605.00
2024-05-09T12:25:42.962Z,604.00
2024-05-09T12:26:43.050Z,603.00
2024-05-09T12:27:43.153Z,603.00
2024-05-09T12:28:43.168Z,604.00
2024-05-09T12:29:43.231Z,603.00
2024-05-09T12:30:43.450Z,602.00
2024-05-09T12:31:43.397Z,606.00
2024-05-09T12:32:43.499Z,601.00
2024-05-09T12:33:43.631Z,602.00